Foxboro, MA

11:47 PM EDT on September 04, 2015 (GMT -0400)
Vandoorn Ave | | Change Station
CLOSE
Current Station
Personal Weather Station
Location: Foxborough, MA
Elevation: 351 ft
Nearby Weather Stations

Elev 351 ft 42.07 °N, 71.27 °W | Updated 41 minutes ago

Partly Cloudy
Partly Cloudy
59.5 °F
Feels Like 59.5 °F
N
0.0
Wind Variable Wind from WNW
Gusts 0.0 mph

Today
High -- | Low -- °F
--% Chance of Precip.
Yesterday
High -- | Low -- °F
Precip. -- in
6:13 AM 7:14 PM
Waning Gibbous, 53% visible
Pressure 30.26 in
Visibility 0.5 miles
Clouds
Dew Point 58 °F
Humidity 95%
Rainfall 0.00 in
Snow Depth Not available.
UV Not available.
Pollen 8.50 out of 12
Air Quality Not available.
Flu Activity Not available.
SPECI KOWD 050339Z AUTO 00000KT 1/2SM FG VV003 11/11 A3026 RMK AO2 T01110106
Pressure 30.26 in
Visibility 0.5 miles
Clouds
Dew Point 58 °F
Humidity 95%
Rainfall 0.00 in
Snow Depth Not available.
UV Not available.
Pollen 8.50 out of 12
Air Quality Not available.
Flu Activity Not available.
SPECI KOWD 050339Z AUTO 00000KT 1/2SM FG VV003 11/11 A3026 RMK AO2 T01110106

10-Day Weather Forecast

×

Almanac

Astronomy

Sep. 04, 2015 Rise Set
Actual Time
Civil Twilight
Nautical Twilight
Astronomical Twilight
Moon
Length of Visible Light
Length of Day
Tomorrow will be .
, % of the Moon is Illuminated

Today's Extremes

State Highs State Lows

Community

WunderPhotos

Upload Photos

1,852,408 photos uploaded!

WunderBlogs® & News

Nearby

Air Quality

  Air Quality AQ Index Pollutant
Not available.

Snow Depth

Station Depth Elevation

Earthquake Activity

City Distance Mag. Time & Date
Minimum magnitude displayed is 2.5.

Coastal Water Temperatures

Place Temperature

Stations

Nearby Weather Stations

Station Location Temp. Windchill Dew Point Humidity Wind Precip. Elev Updated Type